createdAt,value
2022-11-30T00:01:24.559Z,100190.28
2022-11-30T00:03:57.218Z,100187.72
2022-11-30T00:06:25.899Z,100187.56
2022-11-30T00:08:56.357Z,100175.09
2022-11-30T00:11:26.284Z,100176.75
2022-11-30T00:13:54.135Z,100176.09
2022-11-30T00:16:22.027Z,100176.91
2022-11-30T00:18:49.505Z,100177.97
2022-11-30T00:21:16.752Z,100175.75
2022-11-30T00:23:47.125Z,100180.56
2022-11-30T00:26:19.011Z,100173.19
2022-11-30T00:28:46.717Z,100174.31
2022-11-30T00:31:17.453Z,100180.91
2022-11-30T00:33:45.379Z,100179.19
2022-11-30T00:36:18.620Z,100174.69
2022-11-30T00:38:47.013Z,100177.28
2022-11-30T00:41:16.031Z,100181.13
2022-11-30T00:43:43.635Z,100178.59
2022-11-30T00:46:11.535Z,100177.44
2022-11-30T00:48:40.752Z,100172.47
2022-11-30T00:51:11.079Z,100174.25
2022-11-30T00:53:39.451Z,100176.75
2022-11-30T00:56:08.404Z,100178.34
2022-11-30T00:58:35.777Z,100172.69
2022-11-30T01:01:03.502Z,100177.13
2022-11-30T01:03:30.768Z,100176.63
2022-11-30T01:06:09.628Z,100173.91
2022-11-30T01:08:36.993Z,100176.22
2022-11-30T01:11:21.289Z,100182.25
2022-11-30T01:13:48.548Z,100178.22
2022-11-30T01:16:22.198Z,100177.69
2022-11-30T01:18:50.151Z,100183.34
2022-11-30T01:21:25.992Z,100191.53
2022-11-30T01:23:53.701Z,100190.56
2022-11-30T01:26:21.868Z,100180.34
2022-11-30T01:28:55.091Z,100181.16
2022-11-30T01:31:24.696Z,100182.00
2022-11-30T01:33:55.267Z,100182.41
2022-11-30T01:36:26.407Z,100191.44
2022-11-30T01:38:56.939Z,100183.75
2022-11-30T01:41:32.080Z,100180.94
2022-11-30T01:44:05.245Z,100188.97
2022-11-30T01:47:06.910Z,100189.44
2022-11-30T01:49:44.122Z,100191.38
2022-11-30T01:52:20.668Z,100192.16
2022-11-30T01:55:18.224Z,100198.81
2022-11-30T01:58:11.654Z,100196.66
2022-11-30T02:00:46.260Z,100186.94
2022-11-30T02:03:40.353Z,100192.59
2022-11-30T02:06:08.416Z,100184.34
2022-11-30T02:08:35.796Z,100184.63
2022-11-30T02:11:13.435Z,100184.63
2022-11-30T02:14:13.613Z,100176.06
2022-11-30T02:17:00.751Z,100180.69
2022-11-30T02:20:23.596Z,100180.81
2022-11-30T02:23:44.304Z,100196.09
2022-11-30T02:27:00.973Z,100187.28
2022-11-30T02:30:04.214Z,100204.00
2022-11-30T02:32:42.881Z,100202.47
2022-11-30T02:35:12.091Z,100194.63
2022-11-30T02:37:40.369Z,100201.06
2022-11-30T02:40:13.089Z,100204.66
2022-11-30T02:42:40.262Z,100207.13
2022-11-30T02:45:09.663Z,100199.78
2022-11-30T02:48:08.770Z,100212.16
2022-11-30T02:50:55.129Z,100211.91
2022-11-30T02:53:22.730Z,100206.75
2022-11-30T02:55:49.910Z,100215.00
2022-11-30T02:58:18.035Z,100200.06
2022-11-30T03:00:45.648Z,100204.06
2022-11-30T03:03:13.107Z,100198.16
2022-11-30T03:05:40.411Z,100201.16
2022-11-30T03:08:07.609Z,100200.09
2022-11-30T03:10:34.809Z,100198.31
2022-11-30T03:13:02.129Z,100203.28
2022-11-30T03:15:29.357Z,100199.53
2022-11-30T03:17:56.794Z,100204.94
2022-11-30T03:20:24.109Z,100205.34
2022-11-30T03:22:51.345Z,100207.53
2022-11-30T03:25:18.572Z,100200.75
2022-11-30T03:27:45.813Z,100195.31
2022-11-30T03:30:13.444Z,100191.63
2022-11-30T03:32:40.629Z,100196.00
2022-11-30T03:35:08.477Z,100203.88
2022-11-30T03:37:35.642Z,100194.06
2022-11-30T03:40:03.817Z,100198.47
2022-11-30T03:42:31.000Z,100201.16
2022-11-30T03:44:58.251Z,100203.28
2022-11-30T03:47:25.408Z,100194.69
2022-11-30T03:49:52.642Z,100193.59
2022-11-30T03:52:19.828Z,100194.19
2022-11-30T03:54:47.261Z,100189.91
2022-11-30T03:57:14.663Z,100197.75
2022-11-30T03:59:41.909Z,100197.66
2022-11-30T04:02:09.189Z,100194.69
2022-11-30T04:04:36.412Z,100189.63
2022-11-30T04:07:03.687Z,100189.50
2022-11-30T04:09:31.123Z,100186.13
2022-11-30T04:11:58.965Z,100181.22
2022-11-30T04:14:26.240Z,100189.13
2022-11-30T04:16:53.447Z,100192.31
2022-11-30T04:19:20.737Z,100190.59
2022-11-30T04:21:48.107Z,100188.38
2022-11-30T04:24:15.307Z,100180.66
2022-11-30T04:26:42.659Z,100186.53
2022-11-30T04:29:10.040Z,100188.09
2022-11-30T04:31:37.397Z,100191.38
2022-11-30T04:34:04.802Z,100193.44
2022-11-30T04:36:32.033Z,100189.72
2022-11-30T04:38:59.308Z,100183.78
2022-11-30T04:41:26.496Z,100184.47
2022-11-30T04:43:53.720Z,100178.31
2022-11-30T04:46:21.029Z,100182.56
2022-11-30T04:48:48.244Z,100183.66
2022-11-30T04:51:15.423Z,100186.00
2022-11-30T04:53:42.559Z,100191.03
2022-11-30T04:56:11.855Z,100191.38
2022-11-30T04:58:39.836Z,100194.34
2022-11-30T05:01:07.831Z,100189.03
2022-11-30T05:03:35.623Z,100187.22
2022-11-30T05:06:03.609Z,100192.72
2022-11-30T05:08:30.962Z,100195.69
2022-11-30T05:10:58.148Z,100188.97
2022-11-30T05:13:26.519Z,100186.53
2022-11-30T05:15:54.262Z,100188.69
2022-11-30T05:18:22.253Z,100195.19
2022-11-30T05:20:51.683Z,100193.25
2022-11-30T05:23:20.533Z,100193.56
2022-11-30T05:25:47.971Z,100193.16
2022-11-30T05:28:15.712Z,100202.28
2022-11-30T05:30:44.089Z,100194.50
2022-11-30T05:33:12.028Z,100203.72
2022-11-30T05:35:39.572Z,100202.88
2022-11-30T05:38:06.768Z,100205.34
2022-11-30T05:40:33.960Z,100201.56
2022-11-30T05:43:03.654Z,100194.94
2022-11-30T05:45:31.494Z,100196.50
2022-11-30T05:47:58.704Z,100199.63
2022-11-30T05:50:25.901Z,100203.56
2022-11-30T05:52:57.796Z,100206.28
2022-11-30T05:55:25.448Z,100199.16
2022-11-30T05:57:53.229Z,100202.50
2022-11-30T06:00:21.997Z,100202.22
2022-11-30T06:02:55.535Z,100197.84
2022-11-30T06:05:22.792Z,100200.59
2022-11-30T06:07:50.053Z,100201.09
2022-11-30T06:10:17.856Z,100200.97
2022-11-30T06:12:45.091Z,100203.81
2022-11-30T06:15:12.529Z,100205.38
2022-11-30T06:17:39.767Z,100203.06
2022-11-30T06:20:08.856Z,100203.84
2022-11-30T06:22:36.238Z,100201.28
2022-11-30T06:25:04.539Z,100203.59
2022-11-30T06:27:32.341Z,100207.75
2022-11-30T06:29:59.687Z,100211.06
2022-11-30T06:32:26.913Z,100206.97
2022-11-30T06:34:54.124Z,100203.97
2022-11-30T06:37:21.313Z,100213.81
2022-11-30T06:40:05.935Z,100211.88
2022-11-30T06:42:35.200Z,100215.75
2022-11-30T06:45:03.080Z,100219.34
2022-11-30T06:47:30.927Z,100217.53
2022-11-30T06:49:58.068Z,100226.59
2022-11-30T06:52:25.696Z,100225.06
2022-11-30T06:54:52.994Z,100219.25
2022-11-30T06:57:20.253Z,100219.91
2022-11-30T06:59:47.521Z,100218.97
2022-11-30T07:02:18.303Z,100217.16
2022-11-30T07:04:47.212Z,100220.50
2022-11-30T07:07:15.202Z,100219.75
2022-11-30T07:09:42.780Z,100220.13
2022-11-30T07:12:10.014Z,100222.22
2022-11-30T07:14:37.228Z,100218.84
2022-11-30T07:17:04.681Z,100219.38
2022-11-30T07:19:36.022Z,100220.13
2022-11-30T07:22:03.464Z,100229.16
2022-11-30T07:24:49.789Z,100232.00
2022-11-30T07:27:17.258Z,100229.16
2022-11-30T07:29:44.463Z,100232.00
2022-11-30T07:32:11.714Z,100233.16
2022-11-30T07:34:38.972Z,100232.25
2022-11-30T07:37:06.244Z,100228.75
2022-11-30T07:39:33.393Z,100235.03
2022-11-30T07:42:00.662Z,100237.75
2022-11-30T07:44:27.977Z,100236.59
2022-11-30T07:46:55.225Z,100240.59
2022-11-30T07:49:22.424Z,100232.41
2022-11-30T07:51:49.620Z,100233.56
2022-11-30T07:54:16.916Z,100230.31
2022-11-30T07:56:44.108Z,100235.75
2022-11-30T07:59:11.346Z,100244.56
2022-11-30T08:01:38.575Z,100243.75
2022-11-30T08:04:06.042Z,100240.00
2022-11-30T08:06:33.331Z,100243.75
2022-11-30T08:09:04.558Z,100247.13
2022-11-30T08:11:37.000Z,100249.06
2022-11-30T08:14:05.380Z,100253.06
2022-11-30T08:16:40.304Z,100250.16
2022-11-30T08:19:07.576Z,100256.63
2022-11-30T08:21:35.076Z,100252.22
2022-11-30T08:24:02.715Z,100255.06
2022-11-30T08:26:33.822Z,100259.59
2022-11-30T08:29:01.873Z,100260.72
2022-11-30T08:31:33.769Z,100251.53
2022-11-30T08:34:11.247Z,100258.09
2022-11-30T08:36:40.412Z,100263.09
2022-11-30T08:39:11.395Z,100263.91
2022-11-30T08:41:39.296Z,100267.59
2022-11-30T08:44:07.023Z,100269.44
2022-11-30T08:46:52.173Z,100274.88
2022-11-30T08:49:22.889Z,100282.09
2022-11-30T08:54:45.895Z,100292.69
2022-11-30T08:57:20.341Z,100298.13
2022-11-30T08:59:48.646Z,100300.84
2022-11-30T09:02:19.522Z,100305.09
2022-11-30T09:04:49.461Z,100313.44
2022-11-30T09:07:17.440Z,100313.44
2022-11-30T09:09:44.830Z,100311.63
2022-11-30T09:12:11.988Z,100314.47
2022-11-30T09:14:39.132Z,100316.81
2022-11-30T09:17:06.378Z,100313.31
2022-11-30T09:19:33.552Z,100317.06
2022-11-30T09:22:00.697Z,100321.44
2022-11-30T09:24:28.066Z,100319.34
2022-11-30T09:26:57.337Z,100311.00
2022-11-30T09:29:24.542Z,100321.88
2022-11-30T09:31:51.798Z,100316.03
2022-11-30T09:34:19.225Z,100312.22
2022-11-30T09:36:46.381Z,100319.72
2022-11-30T09:39:13.875Z,100324.22
2022-11-30T09:42:17.517Z,100319.03
2022-11-30T09:45:04.467Z,100331.88
2022-11-30T09:48:02.081Z,100332.69
2022-11-30T09:50:39.115Z,100324.66
2022-11-30T09:53:22.045Z,100335.78
2022-11-30T09:55:54.788Z,100335.16
2022-11-30T09:58:53.157Z,100329.34
2022-11-30T10:01:21.943Z,100334.66
2022-11-30T10:03:49.868Z,100330.13
2022-11-30T10:06:51.283Z,100332.47
2022-11-30T10:10:23.600Z,100327.72
2022-11-30T10:13:00.747Z,100330.19
2022-11-30T10:16:00.590Z,100331.72
2022-11-30T10:18:32.125Z,100326.66
2022-11-30T10:21:36.449Z,100315.59
2022-11-30T10:24:53.402Z,100309.09
2022-11-30T10:27:51.666Z,100315.28
2022-11-30T10:30:35.624Z,100315.84
2022-11-30T10:33:19.104Z,100309.75
2022-11-30T10:36:08.426Z,100313.72
2022-11-30T10:38:51.651Z,100316.81
2022-11-30T10:41:37.481Z,100312.69
2022-11-30T10:44:15.935Z,100317.75
2022-11-30T10:47:01.799Z,100322.19
2022-11-30T10:49:31.998Z,100322.81
2022-11-30T10:52:06.213Z,100317.41
2022-11-30T10:54:36.982Z,100312.22
2022-11-30T10:57:07.099Z,100309.63
2022-11-30T10:59:53.154Z,100314.06
2022-11-30T11:02:34.358Z,100307.03
2022-11-30T11:05:23.896Z,100306.75
2022-11-30T11:08:06.215Z,100308.66
2022-11-30T11:10:51.472Z,100308.47
2022-11-30T11:13:43.980Z,100302.41
2022-11-30T11:16:13.495Z,100307.69
2022-11-30T11:19:46.434Z,100297.84
2022-11-30T11:22:27.579Z,100297.84
2022-11-30T11:25:21.312Z,100288.75
2022-11-30T11:28:04.586Z,100282.53
2022-11-30T11:30:33.500Z,100283.56
2022-11-30T11:33:26.374Z,100286.41
2022-11-30T11:36:14.851Z,100283.81
2022-11-30T11:38:47.120Z,100286.16
2022-11-30T11:41:37.463Z,100278.63
2022-11-30T11:44:09.382Z,100284.59
2022-11-30T11:46:57.539Z,100285.00
2022-11-30T11:49:37.903Z,100285.13
2022-11-30T11:52:11.123Z,100283.31
2022-11-30T11:55:03.326Z,100287.44
2022-11-30T11:57:45.227Z,100287.53
2022-11-30T12:00:25.284Z,100287.47
2022-11-30T12:03:26.419Z,100280.25
2022-11-30T12:06:11.611Z,100283.31
2022-11-30T12:08:57.411Z,100284.66
2022-11-30T12:11:45.535Z,100279.47
2022-11-30T12:14:19.251Z,100276.59
2022-11-30T12:17:40.345Z,100279.19
2022-11-30T12:20:58.464Z,100273.75
2022-11-30T12:24:10.163Z,100282.53
2022-11-30T12:27:11.548Z,100278.72
2022-11-30T12:29:54.164Z,100273.88
2022-11-30T12:32:58.118Z,100276.59
2022-11-30T12:36:14.070Z,100274.41
2022-11-30T12:39:09.977Z,100269.56
2022-11-30T12:42:06.958Z,100274.47
2022-11-30T12:45:17.079Z,100273.53
2022-11-30T12:48:21.539Z,100277.56
2022-11-30T12:51:06.648Z,100268.34
2022-11-30T12:54:10.025Z,100276.50
2022-11-30T12:56:50.127Z,100273.34
2022-11-30T13:00:31.728Z,100276.28
2022-11-30T13:03:42.554Z,100274.25
2022-11-30T13:06:14.256Z,100268.50
2022-11-30T13:09:06.812Z,100277.75
2022-11-30T13:11:41.341Z,100269.97
2022-11-30T13:14:22.992Z,100273.81
2022-11-30T13:17:17.302Z,100271.78
2022-11-30T13:20:29.141Z,100267.06
2022-11-30T13:23:35.979Z,100268.94
2022-11-30T13:27:18.559Z,100262.97
2022-11-30T13:30:29.349Z,100258.22
2022-11-30T13:32:58.543Z,100265.25
2022-11-30T13:35:29.311Z,100263.44
2022-11-30T13:38:36.209Z,100259.16
2022-11-30T13:40:59.280Z,100256.44
2022-11-30T13:43:35.677Z,100259.03
2022-11-30T13:46:23.773Z,100264.78
2022-11-30T13:49:29.033Z,100259.03
2022-11-30T13:52:21.669Z,100262.09
2022-11-30T13:54:57.163Z,100258.69
2022-11-30T13:57:30.511Z,100263.34
2022-11-30T14:00:00.119Z,100263.81
2022-11-30T14:02:54.434Z,100258.75
2022-11-30T14:05:39.897Z,100255.34
2022-11-30T14:08:07.073Z,100252.63
2022-11-30T14:10:37.724Z,100251.75
2022-11-30T14:13:10.987Z,100260.66
2022-11-30T14:15:41.905Z,100254.81
2022-11-30T14:18:08.936Z,100256.94
2022-11-30T14:21:03.825Z,100250.50
2022-11-30T14:23:48.796Z,100248.59
2022-11-30T14:26:29.479Z,100252.28
2022-11-30T14:29:07.484Z,100256.25
2022-11-30T14:32:06.065Z,100254.44
2022-11-30T14:34:46.293Z,100253.31
2022-11-30T14:37:25.390Z,100252.88
2022-11-30T14:40:02.092Z,100270.22
2022-11-30T14:42:32.861Z,100253.56
2022-11-30T14:45:00.354Z,100265.63
2022-11-30T14:47:36.268Z,100263.59
2022-11-30T14:50:06.620Z,100270.34
2022-11-30T14:53:21.685Z,100268.31
2022-11-30T14:56:19.952Z,100257.69
2022-11-30T14:59:07.275Z,100264.69
2022-11-30T15:01:34.559Z,100256.66
2022-11-30T15:04:13.371Z,100250.78
2022-11-30T15:06:41.453Z,100255.75
2022-11-30T15:09:23.389Z,100257.31
2022-11-30T15:11:52.590Z,100257.63
2022-11-30T15:14:20.005Z,100262.91
2022-11-30T15:16:58.003Z,100248.78
2022-11-30T15:19:32.832Z,100250.00
2022-11-30T15:22:00.795Z,100251.75
2022-11-30T15:24:29.766Z,100260.53
2022-11-30T15:27:10.919Z,100251.22
2022-11-30T15:29:47.376Z,100254.13
2022-11-30T15:32:19.769Z,100254.53
2022-11-30T15:35:00.814Z,100257.19
2022-11-30T15:37:39.590Z,100247.13
2022-11-30T15:40:10.727Z,100250.91
2022-11-30T15:42:40.567Z,100253.38
2022-11-30T15:45:27.486Z,100259.63
2022-11-30T15:47:57.280Z,100255.41
2022-11-30T15:50:28.323Z,100261.63
2022-11-30T15:53:01.836Z,100262.16
2022-11-30T15:55:49.552Z,100264.00
2022-11-30T15:58:56.800Z,100272.69
2022-11-30T16:01:26.008Z,100268.72
2022-11-30T16:03:56.296Z,100266.41
2022-11-30T16:06:44.687Z,100262.78
2022-11-30T16:09:32.441Z,100267.44
2022-11-30T16:12:01.805Z,100269.00
2022-11-30T16:14:29.084Z,100267.69
2022-11-30T16:16:56.365Z,100270.13
2022-11-30T16:19:23.661Z,100269.25
2022-11-30T16:21:50.880Z,100278.44
2022-11-30T16:24:18.436Z,100271.81
2022-11-30T16:26:52.857Z,100271.59
2022-11-30T16:29:20.651Z,100282.56
2022-11-30T16:31:48.061Z,100276.25
2022-11-30T16:34:15.341Z,100279.09
2022-11-30T16:36:42.644Z,100286.31
2022-11-30T16:39:12.857Z,100279.06
2022-11-30T16:41:40.068Z,100285.00
2022-11-30T16:44:14.164Z,100281.50
2022-11-30T16:46:41.482Z,100285.78
2022-11-30T16:49:08.766Z,100278.41
2022-11-30T16:51:36.352Z,100280.44
2022-11-30T16:54:04.317Z,100292.34
2022-11-30T16:56:31.581Z,100288.06
2022-11-30T16:58:58.808Z,100284.09
2022-11-30T17:01:45.896Z,100286.53
2022-11-30T17:04:26.972Z,100282.41
2022-11-30T17:07:00.454Z,100286.16
2022-11-30T17:09:30.276Z,100286.00
2022-11-30T17:11:57.591Z,100287.31
2022-11-30T17:14:24.809Z,100288.91
2022-11-30T17:16:52.203Z,100280.63
2022-11-30T17:19:20.605Z,100272.34
2022-11-30T17:21:49.985Z,100275.19
2022-11-30T17:24:17.222Z,100272.06
2022-11-30T17:26:44.461Z,100270.28
2022-11-30T17:29:11.659Z,100266.44
2022-11-30T17:31:38.848Z,100266.56
2022-11-30T17:34:08.534Z,100270.28
2022-11-30T17:36:35.742Z,100260.97
2022-11-30T17:39:07.813Z,100262.78
2022-11-30T17:41:35.139Z,100258.41
2022-11-30T17:44:02.902Z,100261.13
2022-11-30T17:46:30.159Z,100252.31
2022-11-30T17:48:57.632Z,100253.50
2022-11-30T17:51:24.894Z,100259.53
2022-11-30T17:53:52.122Z,100260.19
2022-11-30T17:56:19.369Z,100251.66
2022-11-30T17:58:49.116Z,100252.69
2022-11-30T18:01:27.501Z,100253.50
2022-11-30T18:03:56.564Z,100257.22
2022-11-30T18:06:23.965Z,100254.38
2022-11-30T18:08:51.327Z,100258.91
2022-11-30T18:11:25.082Z,100260.34
2022-11-30T18:13:56.036Z,100259.41
2022-11-30T18:16:37.177Z,100255.81
2022-11-30T18:19:12.408Z,100257.88
2022-11-30T18:21:43.763Z,100258.13
2022-11-30T18:24:12.568Z,100252.31
2022-11-30T18:26:40.399Z,100255.16
2022-11-30T18:29:08.104Z,100250.78
2022-11-30T18:31:36.275Z,100258.53
2022-11-30T18:34:07.425Z,100259.16
2022-11-30T18:36:35.077Z,100259.41
2022-11-30T18:39:02.307Z,100253.72
2022-11-30T18:41:30.421Z,100254.00
2022-11-30T18:43:58.541Z,100260.69
2022-11-30T18:46:26.597Z,100254.34
2022-11-30T18:48:54.612Z,100255.53
2022-11-30T18:51:30.190Z,100254.25
2022-11-30T18:54:02.906Z,100261.22
2022-11-30T18:56:34.409Z,100256.72
2022-11-30T18:59:09.897Z,100269.22
2022-11-30T19:01:37.763Z,100271.56
2022-11-30T19:04:11.333Z,100264.31
2022-11-30T19:06:41.931Z,100265.47
2022-11-30T19:09:14.763Z,100269.09
2022-11-30T19:11:43.402Z,100266.78
2022-11-30T19:14:15.000Z,100271.34
2022-11-30T19:16:43.834Z,100272.34
2022-11-30T19:19:15.294Z,100275.19
2022-11-30T19:21:47.207Z,100277.25
2022-11-30T19:24:16.286Z,100274.66
2022-11-30T19:26:48.759Z,100273.47
2022-11-30T19:29:19.791Z,100276.19
2022-11-30T19:31:49.435Z,100273.34
2022-11-30T19:34:17.850Z,100272.59
2022-11-30T19:36:46.272Z,100275.97
2022-11-30T19:39:13.538Z,100276.88
2022-11-30T19:41:40.738Z,100275.97
2022-11-30T19:44:14.278Z,100281.81
2022-11-30T19:46:42.226Z,100272.34
2022-11-30T19:49:10.648Z,100280.09
2022-11-30T19:51:38.033Z,100271.47
2022-11-30T19:54:05.295Z,100274.78
2022-11-30T19:56:34.632Z,100274.00
2022-11-30T19:59:05.490Z,100274.00
2022-11-30T20:01:34.736Z,100282.16
2022-11-30T20:04:02.774Z,100267.97
2022-11-30T20:06:37.318Z,100278.44
2022-11-30T20:09:07.469Z,100272.22
2022-11-30T20:11:35.296Z,100277.00
2022-11-30T20:14:02.811Z,100270.16
2022-11-30T20:16:30.323Z,100268.31
2022-11-30T20:19:01.456Z,100269.38
2022-11-30T20:21:34.962Z,100270.13
2022-11-30T20:24:07.138Z,100273.34
2022-11-30T20:26:42.102Z,100275.28
2022-11-30T20:29:15.903Z,100272.56
2022-11-30T20:31:46.215Z,100277.47
2022-11-30T20:34:13.535Z,100273.88
2022-11-30T20:36:40.930Z,100277.59
2022-11-30T20:39:10.008Z,100276.41
2022-11-30T20:41:37.325Z,100280.56
2022-11-30T20:44:04.995Z,100279.78
2022-11-30T20:46:36.344Z,100278.84
2022-11-30T20:49:13.885Z,100274.47
2022-11-30T20:51:42.155Z,100284.13
2022-11-30T20:54:11.899Z,100282.34
2022-11-30T20:56:41.067Z,100277.53
2022-11-30T20:59:16.855Z,100275.59
2022-11-30T21:01:46.976Z,100273.38
2022-11-30T21:04:14.465Z,100288.06
2022-11-30T21:06:45.603Z,100282.63
2022-11-30T21:09:19.085Z,100287.41
2022-11-30T21:11:48.649Z,100280.78
2022-11-30T21:14:17.801Z,100285.97
2022-11-30T21:16:45.045Z,100281.16
2022-11-30T21:19:14.045Z,100282.97
2022-11-30T21:21:41.330Z,100290.84
2022-11-30T21:24:11.384Z,100289.19
2022-11-30T21:26:42.222Z,100285.06
2022-11-30T21:29:16.964Z,100284.56
2022-11-30T21:31:45.028Z,100284.97
2022-11-30T21:34:12.842Z,100287.41
2022-11-30T21:36:40.161Z,100277.91
2022-11-30T21:39:09.212Z,100275.44
2022-11-30T21:41:39.542Z,100289.75
2022-11-30T21:44:13.238Z,100283.44
2022-11-30T21:46:41.460Z,100288.34
2022-11-30T21:49:11.671Z,100296.56
2022-11-30T21:51:39.448Z,100299.78
2022-11-30T21:54:11.812Z,100302.38
2022-11-30T21:56:42.558Z,100296.13
2022-11-30T21:59:14.000Z,100296.94
2022-11-30T22:01:43.613Z,100295.41
2022-11-30T22:04:13.255Z,100296.94
2022-11-30T22:06:42.318Z,100298.56
2022-11-30T22:09:17.699Z,100307.69
2022-11-30T22:11:45.765Z,100300.81
2022-11-30T22:14:16.491Z,100302.75
2022-11-30T22:16:44.585Z,100297.50
2022-11-30T22:19:11.887Z,100298.66
2022-11-30T22:21:39.723Z,100304.59
2022-11-30T22:24:11.612Z,100307.31
2022-11-30T22:26:43.142Z,100315.53
2022-11-30T22:29:22.630Z,100308.16
2022-11-30T22:31:53.446Z,100308.56
2022-11-30T22:34:21.429Z,100309.38
2022-11-30T22:36:49.031Z,100304.66
2022-11-30T22:39:21.600Z,100303.81
2022-11-30T22:41:55.645Z,100302.56
2022-11-30T22:44:24.613Z,100308.00
2022-11-30T22:46:51.923Z,100307.53
2022-11-30T22:49:21.483Z,100307.28
2022-11-30T22:51:50.118Z,100307.50
2022-11-30T22:54:18.355Z,100306.72
2022-11-30T22:56:46.465Z,100309.16
2022-11-30T22:59:15.768Z,100312.16
2022-11-30T23:01:49.655Z,100318.94
2022-11-30T23:04:20.870Z,100314.00
2022-11-30T23:06:49.829Z,100313.88
2022-11-30T23:09:22.884Z,100313.06
2022-11-30T23:11:51.586Z,100315.13
2022-11-30T23:14:19.635Z,100307.56
2022-11-30T23:16:47.560Z,100308.94
2022-11-30T23:19:15.373Z,100305.88
2022-11-30T23:21:45.329Z,100305.13
2022-11-30T23:24:22.355Z,100308.06
2022-11-30T23:26:50.031Z,100299.84
2022-11-30T23:29:18.410Z,100293.03
2022-11-30T23:31:47.479Z,100306.56
2022-11-30T23:34:22.121Z,100294.63
2022-11-30T23:36:50.627Z,100296.69
2022-11-30T23:39:19.797Z,100296.03
2022-11-30T23:41:47.244Z,100290.78
2022-11-30T23:44:14.659Z,100295.34
2022-11-30T23:46:42.170Z,100298.66
2022-11-30T23:49:09.718Z,100291.41
2022-11-30T23:51:37.053Z,100292.50
2022-11-30T23:54:05.074Z,100285.56
2022-11-30T23:56:32.511Z,100280.22
2022-11-30T23:58:59.767Z,100287.50
